Monticello, UT

8:26 PM MDT on May 05, 2015 (GMT -0600)
us 491 mile marker 14.25 | | Change Station
CLOSE
Current Station
Personal Weather Station
Location: Monticello, UT
Elevation: 6801 ft
Nearby Weather Stations

Elev 6801 ft 37.83 °N, 109.09 °W | Updated 4 minutes ago

Rain
Rain
45.9 °F
Feels Like 44 °F
N
4.7
Wind Variable Wind from SSE

Today
High -- | Low -- °F
--% Chance of Precip.
Yesterday
High -- | Low -- °F
Precip. -- in
6:16 AM 8:10 PM
Waning Gibbous, 96% visible
Pressure 29.89 in
Visibility 10.0 miles
Clouds Scattered Clouds 2100 ft
Scattered Clouds 2600 ft
Overcast 4200 ft
Windchill 44 °F
Dew Point 45 °F
Humidity 98%
Rainfall 0.46 in
Snow Depth Not available.
UV 0 out of 12
Pollen 7.70 out of 12
Air Quality Not available.
Flu Activity Regional
METAR KAIB 060215Z AUTO 36003KT 10SM RA SCT021 SCT026 OVC042 11/08 A2989 RMK AO2

More Conditions Fewer Conditions

Pressure 29.89 in
Visibility 10.0 miles
Clouds Scattered Clouds 2100 ft
Scattered Clouds 2600 ft
Overcast 4200 ft
Windchill 44 °F
Dew Point 45 °F
Humidity 98%
Rainfall 0.46 in
Snow Depth Not available.
UV 0 out of 12
Pollen 7.70 out of 12
Air Quality Not available.
Flu Activity Regional
METAR KAIB 060215Z AUTO 36003KT 10SM RA SCT021 SCT026 OVC042 11/08 A2989 RMK AO2

More Conditions Fewer Conditions

Nowcast | as of 7:33 PM MDT on May 5, 2015

Scattered showers and thunderstorms will continue over portions of central and southern Utah this evening. The strongest storms at 720 PM were located in Zion National Park over kolob canyon...and along the Pine Valley Mountains. Some of these storms will produce locally heavy rain...small hail...dangerous lightning...and gusty winds. Ponding of water is also possible on area roadways...and normally dry washes may be running.

×

10-Day Weather Forecast

Almanac

Astronomy

May. 05, 2015 Rise Set
Actual Time
Civil Twilight
Nautical Twilight
Astronomical Twilight
Moon
Length of Visible Light
Length of Day
Tomorrow will be .
, % of the Moon is Illuminated

Today's Extremes

State Highs State Lows

Community

WunderPhotos

Upload Photos

1,819,041 photos uploaded!

WunderBlogs® & News

Nearby

Air Quality

  Air Quality AQ Index Pollutant
Not available.

Snow Depth

Station Depth Elevation

Earthquake Activity

City Distance Mag. Time & Date
Minimum magnitude displayed is 2.5.

Coastal Water Temperatures

Place Temperature

Stations

Nearby Weather Stations

Station Location Temp. Windchill Dew Point Humidity Wind Precip. Elev Updated Type